createdAt,value
2022-10-09T00:03:59.798Z,11.70
2022-10-09T00:08:01.647Z,10.98
2022-10-09T00:12:03.736Z,10.57
2022-10-09T00:16:07.867Z,11.40
2022-10-09T00:20:10.449Z,10.30
2022-10-09T00:24:12.216Z,11.00
2022-10-09T00:28:14.111Z,10.25
2022-10-09T00:32:16.496Z,9.25
2022-10-09T00:36:22.195Z,8.45
2022-10-09T00:40:24.987Z,8.18
2022-10-09T00:44:51.556Z,7.90
2022-10-09T00:49:01.426Z,8.32
2022-10-09T00:53:03.635Z,7.75
2022-10-09T00:57:05.634Z,7.45
2022-10-09T01:01:07.520Z,6.68
2022-10-09T01:05:10.863Z,7.47
2022-10-09T01:09:22.821Z,6.85
2022-10-09T01:13:36.099Z,7.13
2022-10-09T01:17:44.780Z,7.30
2022-10-09T01:21:55.835Z,7.50
2022-10-09T01:26:26.840Z,8.27
2022-10-09T01:30:29.538Z,8.02
2022-10-09T01:34:33.047Z,8.70
2022-10-09T01:38:35.126Z,8.55
2022-10-09T01:42:37.040Z,8.32
2022-10-09T01:46:39.112Z,9.60
2022-10-09T01:50:45.646Z,9.52
2022-10-09T01:55:18.949Z,9.48
2022-10-09T01:59:21.285Z,9.65
2022-10-09T02:03:25.829Z,8.95
2022-10-09T02:07:29.656Z,9.90
2022-10-09T02:11:33.342Z,10.23
2022-10-09T02:15:47.580Z,10.73
2022-10-09T02:19:59.473Z,9.57
2022-10-09T02:24:02.202Z,10.65
2022-10-09T02:28:04.699Z,8.95
2022-10-09T02:32:06.725Z,9.95
2022-10-09T02:36:08.763Z,10.07
2022-10-09T02:40:11.120Z,10.77
2022-10-09T02:44:12.855Z,12.05
2022-10-09T02:48:14.741Z,10.18
2022-10-09T02:52:16.401Z,10.02
2022-10-09T02:56:18.224Z,10.00
2022-10-09T03:00:20.150Z,10.25
2022-10-09T03:04:22.040Z,9.63
2022-10-09T03:08:23.880Z,9.93
2022-10-09T03:12:25.889Z,11.63
2022-10-09T03:16:28.442Z,11.57
2022-10-09T03:20:55.721Z,12.82
2022-10-09T03:24:57.489Z,11.70
2022-10-09T03:28:59.351Z,12.75
2022-10-09T03:33:01.240Z,13.02
2022-10-09T03:37:02.928Z,12.43
2022-10-09T03:41:05.731Z,11.50
2022-10-09T03:45:08.014Z,12.70
2022-10-09T03:49:09.954Z,11.38
2022-10-09T03:53:13.085Z,11.60
2022-10-09T03:57:15.446Z,10.75
2022-10-09T04:01:17.126Z,10.88
2022-10-09T04:05:19.174Z,10.82
2022-10-09T04:09:20.803Z,9.70
2022-10-09T04:13:22.765Z,11.00
2022-10-09T04:17:24.423Z,10.45
2022-10-09T04:21:26.495Z,12.45
2022-10-09T04:25:29.373Z,12.27
2022-10-09T04:29:31.601Z,11.85
2022-10-09T04:33:33.343Z,12.18
2022-10-09T04:37:36.721Z,14.52
2022-10-09T04:41:38.911Z,14.90
2022-10-09T04:45:41.175Z,15.32
2022-10-09T04:49:42.832Z,15.57
2022-10-09T04:53:45.500Z,15.50
2022-10-09T04:57:47.201Z,15.02
2022-10-09T05:01:49.088Z,17.27
2022-10-09T05:05:50.892Z,17.05
2022-10-09T05:09:52.748Z,17.23
2022-10-09T05:13:56.100Z,16.48
2022-10-09T05:17:58.064Z,16.17
2022-10-09T05:22:01.007Z,17.60
2022-10-09T05:26:06.398Z,16.75
2022-10-09T05:30:09.287Z,18.95
2022-10-09T05:34:11.488Z,19.75
2022-10-09T05:38:13.124Z,18.33
2022-10-09T05:42:15.165Z,18.08
2022-10-09T05:46:23.721Z,18.38
2022-10-09T05:54:27.581Z,17.67
2022-10-09T05:58:29.512Z,15.95
2022-10-09T06:02:31.204Z,17.67
2022-10-09T06:06:37.094Z,17.33
2022-10-09T06:10:38.740Z,15.85
2022-10-09T06:14:40.575Z,14.63
2022-10-09T06:18:48.701Z,14.57
2022-10-09T06:22:51.437Z,14.68
2022-10-09T06:26:53.308Z,14.88
2022-10-09T06:31:04.154Z,15.55
2022-10-09T06:35:06.862Z,15.10
2022-10-09T06:39:10.746Z,13.57
2022-10-09T06:43:12.462Z,13.50
2022-10-09T06:47:14.287Z,12.85
2022-10-09T06:51:19.267Z,9.77
2022-10-09T06:55:24.049Z,9.20
2022-10-09T06:59:28.121Z,8.90
2022-10-09T07:03:30.068Z,8.55
2022-10-09T07:07:32.009Z,6.78
2022-10-09T07:11:36.500Z,8.48
2022-10-09T07:15:45.043Z,9.30
2022-10-09T07:23:50.674Z,8.10
2022-10-09T07:27:52.477Z,5.63
2022-10-09T07:31:54.338Z,5.85
2022-10-09T07:35:57.995Z,5.97
2022-10-09T07:39:59.645Z,6.10
2022-10-09T07:44:01.715Z,5.53
2022-10-09T07:48:04.063Z,4.40
2022-10-09T07:52:05.862Z,4.22
2022-10-09T07:56:13.156Z,3.92
2022-10-09T08:00:15.068Z,4.07
2022-10-09T08:04:16.672Z,4.07
2022-10-09T08:08:18.822Z,3.67
2022-10-09T08:12:20.502Z,3.75
2022-10-09T08:16:23.525Z,3.58
2022-10-09T08:20:25.213Z,4.22
2022-10-09T08:24:27.237Z,3.83
2022-10-09T08:28:29.004Z,3.83
2022-10-09T08:32:31.168Z,5.28
2022-10-09T08:36:32.969Z,5.72
2022-10-09T08:40:53.839Z,6.45
2022-10-09T08:44:59.260Z,5.60
2022-10-09T08:49:04.627Z,7.80
2022-10-09T08:53:36.888Z,6.88
2022-10-09T08:57:39.190Z,6.00
2022-10-09T09:02:02.555Z,6.15
2022-10-09T09:06:16.192Z,3.13
2022-10-09T09:10:46.087Z,4.45
2022-10-09T09:15:07.069Z,4.07
2022-10-09T09:19:46.318Z,3.80
2022-10-09T09:23:48.901Z,3.10
2022-10-09T09:27:53.976Z,3.53
2022-10-09T09:31:59.856Z,4.07
2022-10-09T09:36:10.839Z,3.97
2022-10-09T09:40:36.195Z,4.63
2022-10-09T09:44:44.958Z,8.70
2022-10-09T09:48:48.904Z,7.07
2022-10-09T09:52:50.914Z,7.20
2022-10-09T09:57:15.901Z,8.32
2022-10-09T10:01:27.304Z,8.50
2022-10-09T10:05:36.526Z,10.60
2022-10-09T10:09:38.169Z,9.57
2022-10-09T10:13:49.212Z,7.60
2022-10-09T10:17:58.302Z,7.55
2022-10-09T10:22:06.552Z,4.43
2022-10-09T10:26:36.656Z,4.43
2022-10-09T10:30:39.313Z,4.18
2022-10-09T10:35:04.818Z,5.00
2022-10-09T10:39:13.003Z,5.30
2022-10-09T10:43:22.473Z,6.07
2022-10-09T10:47:28.282Z,5.28
2022-10-09T10:51:38.958Z,5.97
2022-10-09T10:56:04.135Z,5.18
2022-10-09T11:00:10.966Z,8.55
2022-10-09T11:04:24.697Z,9.57
2022-10-09T11:08:37.127Z,11.00
2022-10-09T11:12:56.237Z,11.75
2022-10-09T11:17:06.728Z,11.55
2022-10-09T11:21:12.948Z,9.60
2022-10-09T11:25:34.068Z,7.05
2022-10-09T11:29:47.255Z,4.95
2022-10-09T11:33:52.282Z,3.88
2022-10-09T11:38:01.225Z,3.65
2022-10-09T11:42:03.424Z,3.47
2022-10-09T11:46:18.670Z,4.82
2022-10-09T11:50:39.765Z,4.65
2022-10-09T11:54:41.971Z,4.65
2022-10-09T11:58:43.634Z,4.32
2022-10-09T12:02:58.857Z,3.83
2022-10-09T12:07:03.822Z,4.53
2022-10-09T12:11:16.620Z,6.63
2022-10-09T12:15:37.980Z,8.55
2022-10-09T12:19:41.022Z,7.78
2022-10-09T12:23:42.839Z,7.32
2022-10-09T12:27:45.339Z,7.22
2022-10-09T12:31:51.430Z,6.28
2022-10-09T12:36:05.276Z,6.85
2022-10-09T12:40:20.948Z,6.75
2022-10-09T12:44:35.766Z,6.03
2022-10-09T12:48:41.210Z,6.10
2022-10-09T12:52:55.148Z,5.45
2022-10-09T12:56:59.247Z,4.68
2022-10-09T13:01:04.880Z,4.68
2022-10-09T13:05:07.036Z,4.38
2022-10-09T13:09:19.995Z,4.10
2022-10-09T13:13:26.577Z,3.50
2022-10-09T13:17:38.603Z,3.85
2022-10-09T13:21:40.433Z,4.22
2022-10-09T13:25:44.182Z,3.65
2022-10-09T13:29:47.654Z,3.10
2022-10-09T13:33:49.934Z,34.65
2022-10-09T13:37:52.203Z,3.65
2022-10-09T13:41:55.903Z,21.60
2022-10-09T13:45:58.146Z,62.90
2022-10-09T13:50:00.043Z,13.52
2022-10-09T13:54:01.895Z,5.30
2022-10-09T13:58:04.500Z,4.53
2022-10-09T14:02:06.639Z,6.43
2022-10-09T14:06:08.742Z,4.70
2022-10-09T14:10:10.728Z,5.10
2022-10-09T14:14:12.907Z,4.95
2022-10-09T14:18:14.825Z,4.93
2022-10-09T14:22:16.953Z,4.95
2022-10-09T14:26:18.707Z,5.45
2022-10-09T14:30:20.579Z,5.55
2022-10-09T14:34:22.435Z,6.38
2022-10-09T14:38:24.236Z,6.93
2022-10-09T14:42:25.935Z,12.02
2022-10-09T14:46:29.488Z,12.93
2022-10-09T14:50:31.228Z,13.20
2022-10-09T14:54:33.076Z,7.60
2022-10-09T14:58:36.430Z,14.38
2022-10-09T15:02:38.692Z,9.65
2022-10-09T15:06:40.521Z,9.13
2022-10-09T15:10:43.489Z,6.57
2022-10-09T15:14:45.113Z,13.45
2022-10-09T15:18:50.084Z,7.68
2022-10-09T15:22:51.893Z,19.70
2022-10-09T15:26:53.686Z,10.82
2022-10-09T15:31:00.053Z,38.53
2022-10-09T15:35:02.004Z,28.85
2022-10-09T15:39:07.243Z,98.68
2022-10-09T15:43:09.151Z,13.73
2022-10-09T15:47:16.401Z,26.73
2022-10-09T15:51:19.661Z,21.55
2022-10-09T15:55:21.362Z,23.05
2022-10-09T15:59:23.312Z,20.05
2022-10-09T16:03:24.899Z,26.70
2022-10-09T16:07:26.809Z,27.50
2022-10-09T16:11:28.582Z,25.92
2022-10-09T16:15:30.689Z,28.45
2022-10-09T16:19:32.339Z,42.95
2022-10-09T16:23:35.031Z,49.38
2022-10-09T16:27:36.799Z,35.22
2022-10-09T16:31:38.888Z,46.50
2022-10-09T16:35:40.766Z,82.20
2022-10-09T16:39:42.627Z,57.78
2022-10-09T16:43:46.417Z,19.40
2022-10-09T16:47:48.742Z,15.38
2022-10-09T16:51:50.816Z,16.15
2022-10-09T16:55:52.674Z,19.17
2022-10-09T16:59:54.378Z,24.67
2022-10-09T17:03:58.126Z,28.17
2022-10-09T17:08:00.134Z,24.08
2022-10-09T17:12:02.182Z,22.98
2022-10-09T17:16:08.956Z,25.83
2022-10-09T17:20:10.964Z,21.23
2022-10-09T17:24:15.991Z,20.13
2022-10-09T17:28:17.922Z,20.10
2022-10-09T17:32:19.647Z,17.73
2022-10-09T17:36:23.782Z,22.17
2022-10-09T17:40:25.570Z,21.50
2022-10-09T17:44:30.130Z,31.38
2022-10-09T17:48:35.761Z,28.02
2022-10-09T17:52:37.730Z,34.42
2022-10-09T17:56:40.221Z,24.90
2022-10-09T18:00:42.617Z,21.80
2022-10-09T18:04:44.348Z,20.42
2022-10-09T18:08:46.498Z,19.70
2022-10-09T18:12:48.390Z,21.20
2022-10-09T18:16:50.429Z,21.50
2022-10-09T18:20:52.065Z,22.10
2022-10-09T18:24:54.166Z,20.85
2022-10-09T18:28:55.869Z,22.58
2022-10-09T18:32:57.787Z,19.92
2022-10-09T18:36:59.709Z,21.83
2022-10-09T18:41:02.376Z,19.77
2022-10-09T18:45:04.516Z,21.63
2022-10-09T18:49:09.909Z,21.13
2022-10-09T18:53:12.086Z,31.67
2022-10-09T18:57:14.071Z,42.97
2022-10-09T19:01:16.136Z,45.85
2022-10-09T19:05:18.346Z,51.30
2022-10-09T19:09:20.741Z,59.13
2022-10-09T19:13:22.902Z,56.55
2022-10-09T19:17:24.663Z,71.55
2022-10-09T19:21:26.551Z,66.70
2022-10-09T19:25:28.381Z,66.47
2022-10-09T19:29:30.603Z,64.50
2022-10-09T19:33:32.652Z,60.50
2022-10-09T19:37:34.694Z,61.38
2022-10-09T19:41:36.521Z,61.13
2022-10-09T19:45:38.750Z,67.90
2022-10-09T19:49:41.218Z,63.85
2022-10-09T19:53:43.692Z,57.85
2022-10-09T19:57:45.400Z,57.42
2022-10-09T20:01:47.492Z,63.05
2022-10-09T20:05:49.129Z,57.53
2022-10-09T20:09:51.000Z,63.03
2022-10-09T20:13:56.006Z,63.17
2022-10-09T20:17:58.379Z,67.05
2022-10-09T20:22:00.015Z,74.10
2022-10-09T20:26:09.578Z,65.32
2022-10-09T20:30:12.105Z,70.43
2022-10-09T20:34:13.979Z,62.83
2022-10-09T20:38:15.974Z,63.00
2022-10-09T20:42:17.815Z,62.78
2022-10-09T20:46:21.347Z,64.63
2022-10-09T20:50:23.372Z,61.60
2022-10-09T20:54:25.270Z,63.80
2022-10-09T20:58:27.432Z,90.03
2022-10-09T21:02:29.269Z,87.85
2022-10-09T21:06:31.232Z,90.53
2022-10-09T21:10:32.912Z,96.10
2022-10-09T21:14:36.112Z,91.80
2022-10-09T21:18:38.959Z,85.75
2022-10-09T21:22:42.031Z,107.80
2022-10-09T21:26:47.423Z,93.22
2022-10-09T21:30:50.048Z,75.00
2022-10-09T21:34:51.761Z,80.40
2022-10-09T21:38:53.672Z,81.22
2022-10-09T21:42:55.253Z,101.05
2022-10-09T21:46:57.297Z,83.22
2022-10-09T21:50:59.015Z,104.95
2022-10-09T21:55:00.880Z,106.97
2022-10-09T21:59:02.597Z,116.57
2022-10-09T22:03:04.679Z,115.25
2022-10-09T22:07:06.349Z,99.40
2022-10-09T22:11:10.005Z,96.25
2022-10-09T22:15:11.806Z,86.57
2022-10-09T22:19:14.284Z,82.28
2022-10-09T22:23:18.235Z,70.20
2022-10-09T22:27:20.178Z,75.75
2022-10-09T22:31:24.279Z,62.50
2022-10-09T22:35:26.934Z,68.78
2022-10-09T22:39:29.343Z,74.88
2022-10-09T22:43:31.626Z,65.32
2022-10-09T22:47:33.451Z,65.55
2022-10-09T22:51:35.513Z,61.80
2022-10-09T22:55:41.220Z,64.03
2022-10-09T22:59:43.130Z,58.25
2022-10-09T23:03:45.333Z,61.05
2022-10-09T23:07:47.223Z,65.03
2022-10-09T23:11:48.914Z,55.35
2022-10-09T23:15:51.202Z,57.67
2022-10-09T23:19:52.848Z,59.92
2022-10-09T23:23:55.580Z,57.88
2022-10-09T23:27:57.261Z,50.05
2022-10-09T23:31:59.121Z,60.17
2022-10-09T23:36:04.556Z,50.10
2022-10-09T23:40:07.011Z,56.97
2022-10-09T23:44:08.745Z,60.35
2022-10-09T23:48:10.649Z,51.35
2022-10-09T23:52:12.530Z,56.80
2022-10-09T23:56:22.143Z,63.05
